createdAt,value
2018-06-15T00:01:29.618Z,74.23
2018-06-15T00:03:58.817Z,74.31
2018-06-15T00:06:27.950Z,74.05
2018-06-15T00:08:57.191Z,73.91
2018-06-15T00:11:26.464Z,73.22
2018-06-15T00:13:55.809Z,73.00
2018-06-15T00:16:25.093Z,73.52
2018-06-15T00:18:54.290Z,73.29
2018-06-15T00:21:23.383Z,73.75
2018-06-15T00:23:52.498Z,74.63
2018-06-15T00:26:21.663Z,73.66
2018-06-15T00:28:50.875Z,73.87
2018-06-15T00:31:20.191Z,73.33
2018-06-15T00:33:49.456Z,73.63
2018-06-15T00:36:18.679Z,72.91
2018-06-15T00:38:47.924Z,74.43
2018-06-15T00:41:17.057Z,73.86
2018-06-15T00:43:46.835Z,74.48
2018-06-15T00:46:15.990Z,73.38
2018-06-15T00:48:45.180Z,73.50
2018-06-15T00:51:14.682Z,73.52
2018-06-15T00:53:43.798Z,73.68
2018-06-15T00:56:12.978Z,73.75
2018-06-15T00:58:42.130Z,72.92
2018-06-15T01:01:11.278Z,73.41
2018-06-15T01:03:40.436Z,73.10
2018-06-15T01:06:09.573Z,73.17
2018-06-15T01:08:38.708Z,73.06
2018-06-15T01:11:08.038Z,74.78
2018-06-15T01:13:37.165Z,75.30
2018-06-15T01:16:06.710Z,75.37
2018-06-15T01:18:36.862Z,73.72
2018-06-15T01:21:06.394Z,74.91
2018-06-15T01:23:35.672Z,74.89
2018-06-15T01:26:04.982Z,74.71
2018-06-15T01:28:34.353Z,74.15
2018-06-15T01:31:04.111Z,74.86
2018-06-15T01:33:33.392Z,74.35
2018-06-15T01:36:02.740Z,74.84
2018-06-15T01:38:31.954Z,75.33
2018-06-15T01:41:01.093Z,74.92
2018-06-15T01:43:30.181Z,75.64
2018-06-15T01:45:59.431Z,74.23
2018-06-15T01:48:28.781Z,74.94
2018-06-15T01:50:57.869Z,75.02
2018-06-15T01:53:26.951Z,74.87
2018-06-15T01:55:56.002Z,76.01
2018-06-15T01:58:25.288Z,75.67
2018-06-15T02:00:54.461Z,75.82
2018-06-15T02:03:23.645Z,75.86
2018-06-15T02:05:52.782Z,75.99
2018-06-15T02:08:21.979Z,74.99
2018-06-15T02:10:51.079Z,74.87
2018-06-15T02:13:20.416Z,74.82
2018-06-15T02:15:49.575Z,75.63
2018-06-15T02:18:18.724Z,75.66
2018-06-15T02:20:47.870Z,75.66
2018-06-15T02:23:17.021Z,75.65
2018-06-15T02:25:46.160Z,76.01
2018-06-15T02:28:15.265Z,76.01
2018-06-15T02:30:44.377Z,75.58
2018-06-15T02:33:13.713Z,75.77
2018-06-15T02:35:42.807Z,76.22
2018-06-15T02:38:11.934Z,76.01
2018-06-15T02:40:41.068Z,75.84
2018-06-15T02:43:10.143Z,75.85
2018-06-15T02:45:39.364Z,76.08
2018-06-15T02:48:09.193Z,75.95
2018-06-15T02:50:38.696Z,75.51
2018-06-15T02:53:07.873Z,76.31
2018-06-15T02:55:37.068Z,75.76
2018-06-15T02:58:06.233Z,76.14
2018-06-15T03:00:35.468Z,76.25
2018-06-15T03:08:07.885Z,76.06
2018-06-15T03:10:37.069Z,76.08
2018-06-15T03:13:06.322Z,76.63
2018-06-15T03:15:35.942Z,75.87
2018-06-15T03:18:05.173Z,76.83
2018-06-15T03:20:34.747Z,76.98
2018-06-15T03:23:04.092Z,76.99
2018-06-15T03:25:33.285Z,77.13
2018-06-15T03:28:02.830Z,76.83
2018-06-15T03:30:32.133Z,76.25
2018-06-15T03:33:01.350Z,77.01
2018-06-15T03:35:30.508Z,77.73
2018-06-15T03:37:59.686Z,76.42
2018-06-15T03:40:28.854Z,77.34
2018-06-15T03:42:58.484Z,76.28
2018-06-15T03:45:27.584Z,76.97
2018-06-15T03:47:56.785Z,75.99
2018-06-15T03:50:26.846Z,76.10
2018-06-15T03:52:56.026Z,75.95
2018-06-15T03:55:25.100Z,75.50
2018-06-15T03:57:54.234Z,75.51
2018-06-15T04:00:23.483Z,75.33
2018-06-15T04:02:52.629Z,75.06
2018-06-15T04:05:21.801Z,75.14
2018-06-15T04:07:51.083Z,75.62
2018-06-15T04:10:20.296Z,75.67
2018-06-15T04:12:49.405Z,74.25
2018-06-15T04:15:18.571Z,73.98
2018-06-15T04:17:52.074Z,74.59
2018-06-15T04:20:21.221Z,74.43
2018-06-15T04:22:50.364Z,74.97
2018-06-15T04:25:19.582Z,74.24
2018-06-15T04:27:48.780Z,74.04
2018-06-15T04:30:17.978Z,75.01
2018-06-15T04:32:47.215Z,75.14
2018-06-15T04:35:16.378Z,75.75
2018-06-15T04:37:45.861Z,76.24
2018-06-15T04:40:15.166Z,75.70
2018-06-15T04:42:44.684Z,75.73
2018-06-15T04:45:13.979Z,76.05
2018-06-15T04:47:43.460Z,75.76
2018-06-15T04:50:12.784Z,74.97
2018-06-15T04:52:42.070Z,75.63
2018-06-15T04:55:11.998Z,74.99
2018-06-15T04:57:41.204Z,74.27
2018-06-15T05:00:10.487Z,74.22
2018-06-15T05:02:39.696Z,73.41
2018-06-15T05:05:09.896Z,74.11
2018-06-15T05:07:39.136Z,73.62
2018-06-15T05:10:08.311Z,73.98
2018-06-15T05:12:37.434Z,74.51
2018-06-15T05:15:06.598Z,73.86
2018-06-15T05:17:35.733Z,72.66
2018-06-15T05:20:08.524Z,71.63
2018-06-15T05:22:37.919Z,71.65
2018-06-15T05:25:07.090Z,71.00
2018-06-15T05:27:36.290Z,71.23
2018-06-15T05:30:05.664Z,71.36
2018-06-15T05:32:34.854Z,71.36
2018-06-15T05:35:04.080Z,70.47
2018-06-15T05:37:33.163Z,70.80
2018-06-15T05:40:02.554Z,70.31
2018-06-15T05:42:31.693Z,70.39
2018-06-15T05:45:00.958Z,70.99
2018-06-15T05:47:30.095Z,70.66
2018-06-15T05:49:59.236Z,70.96
2018-06-15T05:52:28.413Z,69.86
2018-06-15T05:54:57.632Z,70.13
2018-06-15T05:57:26.899Z,69.85
2018-06-15T05:59:56.055Z,69.45
2018-06-15T06:02:25.560Z,68.71
2018-06-15T06:04:54.819Z,68.72
2018-06-15T06:07:24.265Z,68.98
2018-06-15T06:09:53.472Z,69.18
2018-06-15T06:12:22.623Z,68.86
2018-06-15T06:14:51.840Z,68.74
2018-06-15T06:17:20.960Z,68.05
2018-06-15T06:19:50.307Z,69.26
2018-06-15T06:22:19.539Z,68.90
2018-06-15T06:24:48.858Z,69.15
2018-06-15T06:27:18.540Z,69.71
2018-06-15T06:29:47.671Z,68.70
2018-06-15T06:32:16.979Z,68.72
2018-06-15T06:34:46.135Z,67.87
2018-06-15T06:37:15.569Z,68.14
2018-06-15T06:39:44.826Z,68.30
2018-06-15T06:42:14.124Z,69.57
2018-06-15T06:44:43.269Z,68.75
2018-06-15T06:47:12.472Z,69.98
2018-06-15T06:49:41.666Z,69.27
2018-06-15T06:52:11.180Z,69.56
2018-06-15T06:54:40.850Z,69.67
2018-06-15T06:57:09.978Z,68.82
2018-06-15T06:59:39.190Z,69.11
2018-06-15T07:02:09.501Z,69.66
2018-06-15T07:04:38.710Z,70.06
2018-06-15T07:07:07.935Z,70.21
2018-06-15T07:09:37.700Z,70.01
2018-06-15T07:12:07.914Z,69.44
2018-06-15T07:14:44.898Z,67.53
2018-06-15T07:19:56.415Z,66.66
2018-06-15T07:22:26.110Z,66.82
2018-06-15T07:24:55.398Z,65.69
2018-06-15T07:27:24.625Z,66.01
2018-06-15T07:29:53.767Z,66.97
2018-06-15T07:32:23.140Z,66.86
2018-06-15T07:34:53.158Z,65.74
2018-06-15T07:37:22.472Z,66.21
2018-06-15T07:39:52.090Z,66.00
2018-06-15T07:42:21.621Z,66.08
2018-06-15T07:44:51.060Z,64.57
2018-06-15T07:47:20.215Z,63.95
2018-06-15T07:49:49.508Z,62.94
2018-06-15T07:52:24.192Z,63.15
2018-06-15T07:54:54.511Z,62.33
2018-06-15T07:57:23.554Z,62.70
2018-06-15T07:59:55.583Z,62.28
2018-06-15T08:02:46.124Z,61.23
2018-06-15T08:08:10.193Z,60.22
2018-06-15T08:10:42.631Z,58.29
2018-06-15T08:13:12.246Z,58.36
2018-06-15T08:16:01.706Z,57.01
2018-06-15T08:18:32.318Z,59.21
2018-06-15T08:21:02.550Z,58.52
2018-06-15T08:23:37.078Z,57.23
2018-06-15T08:26:16.075Z,56.28
2018-06-15T08:28:45.780Z,55.93
2018-06-15T08:31:15.764Z,53.67
2018-06-15T08:33:46.056Z,53.89
2018-06-15T08:36:15.352Z,54.16
2018-06-15T08:38:44.553Z,54.27
2018-06-15T08:41:13.714Z,54.83
2018-06-15T08:43:43.056Z,54.80
2018-06-15T08:46:12.566Z,54.26
2018-06-15T08:48:41.744Z,53.65
2018-06-15T08:51:10.809Z,54.26
2018-06-15T08:53:40.051Z,52.97
2018-06-15T08:56:09.327Z,53.25
2018-06-15T08:58:38.666Z,52.31
2018-06-15T09:01:07.974Z,52.46
2018-06-15T09:03:37.315Z,51.18
2018-06-15T09:06:10.087Z,51.14
2018-06-15T09:08:40.660Z,51.28
2018-06-15T09:11:11.780Z,51.09
2018-06-15T09:13:41.537Z,52.29
2018-06-15T09:16:11.442Z,51.29
2018-06-15T09:18:40.595Z,50.20
2018-06-15T09:21:09.701Z,50.10
2018-06-15T09:23:38.933Z,50.02
2018-06-15T09:26:08.152Z,50.44
2018-06-15T09:28:37.896Z,50.74
2018-06-15T09:31:07.195Z,49.98
2018-06-15T09:33:36.656Z,50.39
2018-06-15T09:36:06.050Z,51.05
2018-06-15T09:38:35.343Z,50.77
2018-06-15T09:41:05.985Z,50.23
2018-06-15T09:43:35.182Z,50.20
2018-06-15T09:46:04.910Z,50.61
2018-06-15T09:48:34.101Z,50.34
2018-06-15T09:51:03.731Z,50.19
2018-06-15T09:53:36.973Z,50.87
2018-06-15T09:56:07.067Z,50.43
2018-06-15T09:58:37.409Z,50.40
2018-06-15T10:01:07.501Z,49.60
2018-06-15T10:03:37.504Z,49.80
2018-06-15T10:06:06.865Z,49.60
2018-06-15T10:08:36.938Z,49.92
2018-06-15T10:11:06.401Z,49.50
2018-06-15T10:13:35.953Z,49.21
2018-06-15T10:16:05.311Z,49.91
2018-06-15T10:18:34.576Z,49.86
2018-06-15T10:21:03.880Z,47.72
2018-06-15T10:23:33.034Z,47.86
2018-06-15T10:26:03.151Z,48.46
2018-06-15T10:28:32.912Z,47.26
2018-06-15T10:31:02.896Z,47.09
2018-06-15T10:33:32.031Z,47.03
2018-06-15T10:36:01.222Z,47.17
2018-06-15T10:38:30.449Z,46.29
2018-06-15T10:40:59.646Z,47.18
2018-06-15T10:43:28.760Z,47.18
2018-06-15T10:45:57.841Z,46.63
2018-06-15T10:48:27.065Z,45.82
2018-06-15T10:50:57.086Z,45.58
2018-06-15T10:53:26.278Z,45.13
2018-06-15T10:55:55.527Z,45.92
2018-06-15T10:58:24.815Z,46.67
2018-06-15T11:00:53.882Z,47.05
2018-06-15T11:03:23.071Z,47.98
2018-06-15T11:05:52.369Z,47.44
2018-06-15T11:08:21.676Z,47.20
2018-06-15T11:10:51.497Z,47.75
2018-06-15T11:13:20.750Z,48.99
2018-06-15T11:15:49.846Z,49.99
2018-06-15T11:18:19.655Z,50.70
2018-06-15T11:20:48.783Z,50.95
2018-06-15T11:23:17.962Z,50.83
2018-06-15T11:25:47.406Z,50.85
2018-06-15T11:28:16.699Z,51.00
2018-06-15T11:30:46.254Z,50.88
2018-06-15T11:33:15.592Z,51.13
2018-06-15T11:35:44.809Z,50.50
2018-06-15T11:38:14.051Z,50.22
2018-06-15T11:40:44.228Z,49.73
2018-06-15T11:43:13.652Z,49.98
2018-06-15T11:45:43.795Z,49.36
2018-06-15T11:48:13.872Z,49.31
2018-06-15T11:50:43.986Z,49.36
2018-06-15T11:53:13.134Z,50.45
2018-06-15T11:55:42.735Z,49.70
2018-06-15T11:58:11.960Z,49.79
2018-06-15T12:00:41.186Z,49.08
2018-06-15T12:03:10.485Z,47.93
2018-06-15T12:05:39.817Z,47.51
2018-06-15T12:08:09.047Z,47.62
2018-06-15T12:10:38.279Z,47.33
2018-06-15T12:13:07.570Z,47.14
2018-06-15T12:15:37.016Z,47.47
2018-06-15T12:18:06.230Z,47.30
2018-06-15T12:20:35.523Z,46.51
2018-06-15T12:23:05.779Z,46.82
2018-06-15T12:25:35.142Z,47.20
2018-06-15T12:28:04.525Z,48.22
2018-06-15T12:30:34.873Z,48.16
2018-06-15T12:33:04.647Z,48.24
2018-06-15T12:35:33.973Z,48.11
2018-06-15T12:38:03.248Z,47.79
2018-06-15T12:40:32.402Z,47.36
2018-06-15T12:43:01.663Z,46.79
2018-06-15T12:45:30.820Z,47.46
2018-06-15T12:48:00.091Z,46.29
2018-06-15T12:50:29.272Z,46.92
2018-06-15T12:52:58.518Z,46.83
2018-06-15T12:55:28.659Z,47.07
2018-06-15T12:57:57.871Z,46.87
2018-06-15T13:00:27.033Z,47.44
2018-06-15T13:02:56.387Z,47.34
2018-06-15T13:05:25.557Z,46.83
2018-06-15T13:07:54.895Z,47.54
2018-06-15T13:10:24.239Z,47.12
2018-06-15T13:12:53.435Z,47.75
2018-06-15T13:15:22.654Z,46.79
2018-06-15T13:17:51.875Z,46.63
2018-06-15T13:20:21.056Z,46.30
2018-06-15T13:22:50.303Z,45.88
2018-06-15T13:25:19.470Z,45.78
2018-06-15T13:27:48.633Z,45.43
2018-06-15T13:30:18.686Z,46.67
2018-06-15T13:32:48.033Z,46.51
2018-06-15T13:35:18.329Z,46.65
2018-06-15T13:37:47.553Z,47.05
2018-06-15T13:40:21.082Z,47.60
2018-06-15T13:42:51.083Z,46.73
2018-06-15T13:45:21.092Z,46.79
2018-06-15T13:47:51.211Z,47.11
2018-06-15T13:50:21.359Z,46.91
2018-06-15T13:52:50.684Z,46.06
2018-06-15T13:55:19.834Z,46.27
2018-06-15T13:57:49.701Z,48.08
2018-06-15T14:00:18.956Z,47.29
2018-06-15T14:02:48.143Z,48.40
2018-06-15T14:05:19.529Z,47.14
2018-06-15T14:07:48.738Z,47.05
2018-06-15T14:10:17.962Z,47.05
2018-06-15T14:12:47.230Z,47.08
2018-06-15T14:15:16.637Z,48.72
2018-06-15T14:17:46.111Z,48.31
2018-06-15T14:20:17.074Z,48.87
2018-06-15T14:22:46.346Z,48.94
2018-06-15T14:25:15.533Z,48.15
2018-06-15T14:27:47.194Z,48.78
2018-06-15T14:30:18.455Z,49.43
2018-06-15T14:32:48.042Z,48.58
2018-06-15T14:35:17.128Z,50.19
2018-06-15T14:37:46.281Z,49.08
2018-06-15T14:40:18.162Z,49.15
2018-06-15T14:42:47.561Z,49.55
2018-06-15T14:45:17.157Z,49.49
2018-06-15T14:47:46.530Z,49.95
2018-06-15T14:50:15.811Z,48.63
2018-06-15T14:52:45.300Z,50.36
2018-06-15T14:55:14.574Z,50.09
2018-06-15T14:57:43.791Z,50.63
2018-06-15T15:00:16.643Z,50.79
2018-06-15T15:02:45.870Z,50.86
2018-06-15T15:05:15.559Z,50.87
2018-06-15T15:07:45.083Z,51.42
2018-06-15T15:10:14.997Z,51.05
2018-06-15T15:12:44.147Z,50.65
2018-06-15T15:15:13.430Z,50.92
2018-06-15T15:17:42.530Z,50.78
2018-06-15T15:20:11.767Z,50.82
2018-06-15T15:22:40.883Z,50.59
2018-06-15T15:25:10.161Z,50.82
2018-06-15T15:27:39.363Z,49.99
2018-06-15T15:30:08.597Z,50.70
2018-06-15T15:32:37.890Z,50.18
2018-06-15T15:35:07.151Z,50.60
2018-06-15T15:37:36.314Z,50.16
2018-06-15T15:40:05.780Z,50.90
2018-06-15T15:42:35.026Z,50.97
2018-06-15T15:45:05.024Z,50.39
2018-06-15T15:47:34.303Z,50.75
2018-06-15T15:50:03.891Z,52.11
2018-06-15T15:52:33.064Z,51.84
2018-06-15T15:55:02.788Z,51.79
2018-06-15T15:57:31.910Z,50.91
2018-06-15T16:00:01.267Z,51.38
2018-06-15T16:02:30.568Z,51.06
2018-06-15T16:04:59.803Z,51.77
2018-06-15T16:07:29.802Z,50.70
2018-06-15T16:09:59.034Z,50.83
2018-06-15T16:12:28.766Z,50.92
2018-06-15T16:14:57.829Z,51.26
2018-06-15T16:17:27.623Z,51.94
2018-06-15T16:19:57.184Z,51.70
2018-06-15T16:22:26.357Z,51.42
2018-06-15T16:24:56.464Z,50.66
2018-06-15T16:27:25.876Z,50.95
2018-06-15T16:29:55.910Z,50.91
2018-06-15T16:32:25.925Z,51.57
2018-06-15T16:34:55.230Z,52.07
2018-06-15T16:37:24.622Z,50.73
2018-06-15T16:39:53.816Z,51.83
2018-06-15T16:42:23.613Z,51.46
2018-06-15T16:44:52.831Z,51.14
2018-06-15T16:47:22.017Z,51.04
2018-06-15T16:49:51.622Z,51.81
2018-06-15T16:52:21.098Z,50.82
2018-06-15T16:54:51.786Z,50.15
2018-06-15T16:57:21.201Z,50.41
2018-06-15T16:59:50.311Z,50.40
2018-06-15T17:02:19.463Z,50.53
2018-06-15T17:04:48.650Z,51.64
2018-06-15T17:07:17.900Z,50.79
2018-06-15T17:09:47.002Z,50.86
2018-06-15T17:12:16.239Z,51.86
2018-06-15T17:14:45.639Z,51.31
2018-06-15T17:17:14.854Z,51.66
2018-06-15T17:19:44.165Z,51.41
2018-06-15T17:22:13.539Z,51.86
2018-06-15T17:24:42.755Z,50.95
2018-06-15T17:27:12.410Z,50.91
2018-06-15T17:29:41.476Z,51.08
2018-06-15T17:32:11.478Z,50.94
2018-06-15T17:34:40.661Z,51.14
2018-06-15T17:37:09.863Z,51.58
2018-06-15T17:39:39.873Z,51.89
2018-06-15T17:42:09.307Z,52.32
2018-06-15T17:44:38.491Z,51.53
2018-06-15T17:47:07.669Z,52.74
2018-06-15T17:49:36.788Z,51.78
2018-06-15T17:52:06.426Z,52.48
2018-06-15T17:54:35.522Z,53.31
2018-06-15T17:57:04.978Z,52.31
2018-06-15T17:59:34.071Z,52.82
2018-06-15T18:02:03.275Z,53.19
2018-06-15T18:04:32.363Z,52.90
2018-06-15T18:07:01.585Z,53.16
2018-06-15T18:09:30.759Z,53.54
2018-06-15T18:12:00.780Z,55.07
2018-06-15T18:14:29.906Z,54.99
2018-06-15T18:16:59.123Z,56.14
2018-06-15T18:19:28.278Z,55.94
2018-06-15T18:21:57.442Z,55.42
2018-06-15T18:24:26.564Z,56.21
2018-06-15T18:26:55.776Z,55.18
2018-06-15T18:29:24.936Z,55.05
2018-06-15T18:31:54.171Z,54.98
2018-06-15T18:34:23.331Z,54.67
2018-06-15T18:36:52.434Z,54.67
2018-06-15T18:39:21.650Z,55.03
2018-06-15T18:41:50.806Z,54.57
2018-06-15T18:44:19.967Z,55.40
2018-06-15T18:46:49.051Z,55.55
2018-06-15T18:49:18.230Z,55.87
2018-06-15T18:51:47.446Z,57.18
2018-06-15T18:54:16.567Z,56.93
2018-06-15T18:56:45.701Z,56.11
2018-06-15T18:59:14.918Z,55.49
2018-06-15T19:01:44.129Z,57.52
2018-06-15T19:04:13.255Z,58.17
2018-06-15T19:06:42.410Z,57.81
2018-06-15T19:09:12.447Z,58.74
2018-06-15T19:11:41.625Z,59.49
2018-06-15T19:14:10.738Z,59.53
2018-06-15T19:16:39.918Z,59.80
2018-06-15T19:19:09.026Z,60.96
2018-06-15T19:21:38.158Z,61.42
2018-06-15T19:24:07.320Z,61.80
2018-06-15T19:26:36.556Z,61.84
2018-06-15T19:29:06.430Z,61.70
2018-06-15T19:31:35.534Z,62.09
2018-06-15T19:34:04.681Z,62.67
2018-06-15T19:36:33.914Z,63.00
2018-06-15T19:39:03.048Z,62.09
2018-06-15T19:41:32.318Z,62.51
2018-06-15T19:44:01.480Z,62.78
2018-06-15T19:46:30.622Z,62.08
2018-06-15T19:49:00.113Z,63.10
2018-06-15T19:51:29.322Z,62.89
2018-06-15T19:53:58.486Z,62.86
2018-06-15T19:56:28.096Z,63.44
2018-06-15T19:58:57.221Z,64.15
2018-06-15T20:01:26.507Z,64.76
2018-06-15T20:03:55.662Z,65.00
2018-06-15T20:06:24.900Z,64.35
2018-06-15T20:08:54.077Z,64.73
2018-06-15T20:11:23.402Z,65.51
2018-06-15T20:13:52.638Z,65.79
2018-06-15T20:16:21.923Z,65.71
2018-06-15T20:18:51.119Z,65.30
2018-06-15T20:21:20.256Z,66.18
2018-06-15T20:23:49.423Z,65.13
2018-06-15T20:26:18.532Z,66.12
2018-06-15T20:28:47.975Z,66.12
2018-06-15T20:31:17.167Z,66.60
2018-06-15T20:33:46.374Z,66.04
2018-06-15T20:36:15.759Z,67.15
2018-06-15T20:38:44.919Z,67.93
2018-06-15T20:41:14.039Z,68.02
2018-06-15T20:43:43.343Z,68.49
2018-06-15T20:46:12.466Z,68.22
2018-06-15T20:48:41.565Z,67.78
2018-06-15T20:51:10.754Z,67.80
2018-06-15T20:53:40.066Z,67.53
2018-06-15T20:56:09.359Z,68.31
2018-06-15T20:58:38.909Z,68.34
2018-06-15T21:01:08.275Z,69.19
2018-06-15T21:03:37.508Z,69.77
2018-06-15T21:06:06.672Z,68.96
2018-06-15T21:08:35.832Z,68.87
2018-06-15T21:11:05.891Z,68.77
2018-06-15T21:13:35.085Z,69.62
2018-06-15T21:16:04.376Z,68.90
2018-06-15T21:18:34.237Z,69.07
2018-06-15T21:21:03.333Z,69.46
2018-06-15T21:23:32.508Z,68.89
2018-06-15T21:26:01.658Z,68.52
2018-06-15T21:28:30.780Z,69.07
2018-06-15T21:30:59.891Z,69.14
2018-06-15T21:33:29.058Z,68.80
2018-06-15T21:35:58.136Z,70.02
2018-06-15T21:38:27.254Z,69.40
2018-06-15T21:40:56.893Z,69.83
2018-06-15T21:43:26.066Z,70.82
2018-06-15T21:45:55.353Z,70.21
2018-06-15T21:48:24.458Z,70.38
2018-06-15T21:50:54.176Z,70.27
2018-06-15T21:53:23.345Z,69.78
2018-06-15T21:55:52.555Z,69.37
2018-06-15T21:58:21.687Z,69.92
2018-06-15T22:00:50.794Z,70.10
2018-06-15T22:03:20.079Z,70.24
2018-06-15T22:05:49.170Z,70.68
2018-06-15T22:08:18.314Z,70.72
2018-06-15T22:10:47.547Z,70.75
2018-06-15T22:13:17.622Z,70.29
2018-06-15T22:15:46.771Z,70.33
2018-06-15T22:18:15.925Z,70.60
2018-06-15T22:20:45.136Z,70.81
2018-06-15T22:23:16.237Z,71.26
2018-06-15T22:25:45.532Z,70.83
2018-06-15T22:28:14.797Z,70.58
2018-06-15T22:30:43.927Z,71.52
2018-06-15T22:33:13.606Z,70.84
2018-06-15T22:35:42.822Z,71.32
2018-06-15T22:38:11.994Z,70.63
2018-06-15T22:40:41.215Z,70.90
2018-06-15T22:43:10.494Z,71.29
2018-06-15T22:45:39.715Z,71.57
2018-06-15T22:48:08.892Z,72.24
2018-06-15T22:50:38.193Z,71.77
2018-06-15T22:53:07.424Z,71.62
2018-06-15T22:55:36.571Z,71.74
2018-06-15T22:58:05.905Z,72.20
2018-06-15T23:00:35.098Z,72.39
2018-06-15T23:03:04.314Z,72.13
2018-06-15T23:05:33.483Z,72.18
2018-06-15T23:08:02.831Z,73.14
2018-06-15T23:10:31.993Z,73.23
2018-06-15T23:13:01.088Z,73.10
2018-06-15T23:15:30.220Z,72.97
2018-06-15T23:17:59.312Z,72.94
2018-06-15T23:20:28.479Z,72.82
2018-06-15T23:22:57.657Z,72.92
2018-06-15T23:25:26.836Z,72.70
2018-06-15T23:27:56.062Z,73.22
2018-06-15T23:30:25.250Z,73.56
2018-06-15T23:32:54.669Z,73.78
2018-06-15T23:35:23.794Z,74.65
2018-06-15T23:37:53.365Z,73.29
2018-06-15T23:40:22.665Z,73.64
2018-06-15T23:42:51.861Z,73.79
2018-06-15T23:45:21.065Z,72.83
2018-06-15T23:47:50.223Z,73.29
2018-06-15T23:50:19.353Z,72.99
2018-06-15T23:52:49.395Z,72.71
2018-06-15T23:55:18.558Z,73.08
2018-06-15T23:57:47.846Z,73.53
